Tiempo atmosférico en la estación meteorológica de Lubia, Soria (1100 m.)



Fecha
DESCASC
Temp. máxima en grados centígrados (hora)
DESCASC
Temp. mínima en grados centígrados (hora)
DESCASC
Temp. media en grados centígrados
DESCASC
Racha de viento máxima en m/sg (hora)
DESCASC
Velocidad máxima media en intervalos de 10 minutos(hora)
DESCASC
Precipitaciones diarias en mm
DESCASC
Precipitaciones de 00:00 a 06:00 en mm
DESCASC
Precipitaciones de 06:00 a 12:00 en mm
DESCASC
Precipitaciones de 12:00 a 18:00 en mm
DESCASC
Precipitaciones de 18:00 a 24:00 en mm
DESCASC
05-04-2020 16.4 (17:40) 5.8 (07:00) 11.1 13.06 (15:40) 6.39 (15:40) 0 0 0 0 0
04-04-2020 17.1 (17:20) -0.5 (06:50) 8.3 9.44 (13:50) 5.56 (16:50) 0 0 0 0 0
03-04-2020 14.4 (17:00) -3.7 (07:30) 5.3 6.67 (14:10) 4.17 (18:00) 0 0 0 0 0
02-04-2020 9.7 (13:40) 2.6 (00:00) 6.1 10.83 (13:30) 5.83 (13:50) 0.4 0 0.4 0 0
01-04-2020 7.7 (15:40) 2.8 (00:00) 5.2 8.06 (01:20) 5.28 (01:20) 11.4 9 2 0 0.4
31-03-2020 3 (18:10) -3.1 (-00:0) 0 9.17 (18:10) 6.11 (18:00) 7.2 0.6 1.6 2.6 2.4
30-03-2020 3.8 (16:30) -1.6 (-00:0) 1.1 11.67 (06:30) 6.67 (08:00) 0 0 0 0 0
29-03-2020 16.6 (15:40) 0.1 (00:00) 8.4 10 (19:20) 6.39 (19:20) 0 0 0 0 0
28-03-2020 14.1 (16:00) -3.2 (-00:0) 5.5 6.67 (13:30) 3.89 (13:30) 0 0 0 0 0
27-03-2020 10.1 (15:50) -3.5 (-00:0) 3.3 9.17 (14:30) 5.28 (15:20) 0 0 0 0 0
26-03-2020 8.5 (15:30) -2.2 (-00:0) 3.1 12.5 (13:50) 6.94 (14:00) 0 0 0 0 0
25-03-2020 13.5 (14:20) 0 (00:00) 6.8 9.72 (15:30) 6.67 (15:30) 0 0 0 0 0
24-03-2020 10.7 (17:20) 1.3 (00:00) 6 10.28 (12:00) 7.22 (12:00) 0 0 0 0 0
23-03-2020 10.4 (13:00) 4 (00:00) 7.2 10.56 (15:00) 7.22 (15:00) 0 0 0 0 0
22-03-2020 11.9 (14:30) 4.6 (02:10) 8.2 10 (16:20) 6.39 (17:50) 0 0 0 0 0
21-03-2020 10.4 (12:50) 4.3 (00:00) 7.3 6.11 (11:00) 3.89 (11:00) 0 0 0 0 0
20-03-2020 11.5 (13:40) 3.5 (00:00) 7.5 6.67 (14:50) 4.17 (16:50) 0 0 0 0 0
19-03-2020 14 (17:00) 3.1 (00:00) 8.5 7.78 (13:50) 5 (14:10) 0 0 0 0 0
18-03-2020 14 (15:50) 4.4 (00:00) 9.2 5.83 (11:40) 3.89 (12:10) 0 0 0 0 0
17-03-2020 10 (15:30) 4.7 (00:00) 7.3 10.56 (01:20) 6.39 (01:20) 2.4 0.2 2.2 0 0
16-03-2020 6.3 (00:20) -0.1 (00:00) 3.1 11.94 (20:30) 6.94 (21:40) 30.8 11.6 11.8 4.8 2.6
15-03-2020 18.1 (16:20) 0.1 (00:00) 9.1 20.28 (19:30) 10.56 (19:20) 9.8 0 0 0 9.8
14-03-2020 19.9 (17:30) 0.2 (00:00) 10 6.11 (15:40) 3.61 (15:40) 0 0 0 0 0
13-03-2020 16.2 (16:00) 3.1 (23:50) 9.7 9.17 (14:10) 5 (11:30) 0 0 0 0 0
12-03-2020 23.9 (15:00) 6.4 (00:00) 15.1 11.67 (14:30) 6.39 (14:30) 0 0 0 0 0
11-03-2020 22.9 (15:30) 6.8 (00:00) 14.8 9.44 (14:40) 5.83 (14:30) 0 0 0 0 0
10-03-2020 18.3 (15:00) 2.8 (00:00) 10.5 11.39 (10:20) 7.5 (16:00) 0 0 0 0 0
09-03-2020 13.5 (14:40) 1.9 (00:00) 7.7 10 (06:10) 6.39 (05:10) 0 0 0 0 0
08-03-2020 12.6 (14:40) 2.3 (00:00) 7.5 11.94 (11:50) 7.78 (15:00) 0 0 0 0 0

Gráficas

Temp. máximas Temp. mínimas Temp. medias Precipitaciones Rachas de viento máximas Velocidades máximas media en intervalos de 10 minutos

Datos horarios

Fecha y hora oficial Temperatura (ºC) Velocidad del viento (km/h) Dirección del viento Racha (km/h) Dirección de racha Precipitación (mm) Presión (hPa) Tendencia (hPa) Humedad (%)
2020-04-06 23:00:00 8.4 0 Calma 8 Sudeste 0 -- -- 97
2020-04-06 22:00:00 8.8 3 Sudeste 8 Noroeste 0 -- -- 95
2020-04-06 21:00:00 9.4 4 Noroeste 26 Noroeste 0 -- -- 93
2020-04-06 20:00:00 10.7 20 Oeste 32 Oeste 0 -- -- 83
2020-04-06 19:00:00 13.2 15 Sur 30 Sur 0 -- -- 72
2020-04-06 18:00:00 14.3 18 Sur 33 Sur 0 -- -- 67
2020-04-06 17:00:00 14.2 17 Sur 36 Sur 0 -- -- 67
2020-04-06 16:00:00 15.6 16 Sudoeste 33 Sur 0 -- -- 63
2020-04-06 15:00:00 14.3 14 Sur 28 Sur 0 -- -- 73
2020-04-06 14:00:00 11.9 18 Sudoeste 30 Sudoeste 0 -- -- 82
2020-04-06 13:00:00 11.5 14 Sur 30 Sur 0 -- -- 86
2020-04-06 12:00:00 12.2 18 Sur 27 Sur 0 -- -- 82
2020-04-06 11:00:00 10.9 16 Sur 27 Sur 0 -- -- 91
2020-04-06 10:00:00 10.1 13 Sur 21 Sudoeste 0 -- -- 94
2020-04-06 09:00:00 9 11 Sur 18 Sur 0.6 -- -- 97
2020-04-06 08:00:00 8.5 10 Sur 17 Sur 0.2 -- -- 96
2020-04-06 07:00:00 8.4 9 Sur 15 Sur 0 -- -- 96
2020-04-06 06:00:00 8.4 7 Sudeste 14 Sudeste 0 -- -- 96
2020-04-06 05:00:00 8.8 8 Sur 13 Sur 0.2 -- -- 93
2020-04-06 04:00:00 9.3 7 Sudeste 14 Sur 0 -- -- 84
2020-04-06 03:00:00 9.8 8 Sudoeste 16 Sur 0 -- -- 80
2020-04-06 02:00:00 9.6 9 Sur 15 Sur 0 -- -- 77
2020-04-06 01:00:00 10.1 8 Sur 14 Sur 0 -- -- 74
2020-04-06 00:00:00 10.3 8 Sur 17 Sur 0 -- -- 73
2020-04-05 23:00:00 9.6 6 Sur 10 Sur 0 -- -- 75
2020-04-05 22:00:00 9.3 6 Sur 11 Sur 0 -- -- 74
2020-04-05 21:00:00 11.3 8 Sur 29 Sudoeste 0 -- -- 65
2020-04-05 20:00:00 13.7 17 Sudoeste 40 Sudoeste 0 -- -- 53
2020-04-05 19:00:00 15.4 19 Sudoeste 40 Sur 0 -- -- 49
2020-04-05 18:00:00 16.4 18 Sur 35 Sur 0 -- -- 47
2020-04-05 17:00:00 16.1 21 Sur 44 Sur 0 -- -- 48
2020-04-05 16:00:00 14.4 21 Sur 47 Sudeste 0 -- -- 52
2020-04-05 15:00:00 15.5 22 Sudoeste 35 Sur 0 -- -- 51
2020-04-05 14:00:00 14.7 17 Sudoeste 35 Sudoeste 0 -- -- 55
2020-04-05 13:00:00 13.4 19 Sur 34 Sudoeste 0 -- -- 57
2020-04-05 12:00:00 12.5 18 Sudoeste 32 Sur 0 -- -- 61
2020-04-05 11:00:00 10.6 19 Sur 31 Sur 0 -- -- 69
2020-04-05 10:00:00 9.3 14 Sur 21 Sur 0 -- -- 75
2020-04-05 09:00:00 6.4 10 Sur 17 Sur 0 -- -- 85
2020-04-05 08:00:00 6 9 Sur 14 Sur 0 -- -- 87
2020-04-05 07:00:00 5.8 8 Sur 15 Sur 0 -- -- 90
2020-04-05 06:00:00 6.1 8 Sur 15 Sudeste 0 -- -- 86
2020-04-05 05:00:00 6.5 10 Sudeste 17 Sudeste 0 -- -- 82
2020-04-05 04:00:00 6.5 8 Sur 13 Sur 0 -- -- 81
2020-04-05 03:00:00 6.5 8 Sur 18 Sur 0 -- -- 81
2020-04-05 02:00:00 7 7 Sur 12 Sur 0 -- -- 77
2020-04-05 01:00:00 7.4 7 Sur 17 Sur 0 -- -- 72
2020-04-05 00:00:00 8.8 10 Sur 17 Sur 0 -- -- 67
2020-04-04 23:00:00 9.7 6 Sur 14 Sudoeste 0 -- -- 63
2020-04-04 22:00:00 10.9 6 Sur 12 Sudeste 0 -- -- 56
2020-04-04 21:00:00 11.9 9 Sur 24 Sur 0 -- -- 65
2020-04-04 20:00:00 12.9 12 Sur 30 Sudeste 0 -- -- 56
2020-04-04 19:00:00 14.5 18 Sudeste 31 Este 0 -- -- 46
2020-04-04 18:00:00 16.8 16 Sudeste 33 Sudeste 0 -- -- 39
2020-04-04 17:00:00 16.3 19 Sudeste 30 Sudeste 0 -- -- 37
2020-04-04 16:00:00 15.8 16 Sur 30 Sur 0 -- -- 36
2020-04-04 15:00:00 15.1 15 Sudeste 31 Sudeste 0 -- -- 39
2020-04-04 14:00:00 14 13 Sur 34 Sudeste 0 -- -- 40
2020-04-04 13:00:00 13.2 11 Sur 31 Sur 0 -- -- 42
2020-04-04 12:00:00 11.1 11 Este 21 Sudeste 0 -- -- 52
2020-04-04 11:00:00 9.6 10 Este 17 Sudeste 0 -- -- 60
2020-04-04 10:00:00 8 8 Sudeste 14 Sudeste 0 -- -- 63
2020-04-04 09:00:00 5.8 5 Sudeste 12 Este 0 -- -- 77
2020-04-04 08:00:00 -0.4 6 Este 10 Este 0 -- -- 97
2020-04-04 07:00:00 -0.2 8 Este 11 Este 0 -- -- 97
2020-04-04 06:00:00 0.2 6 Este 9 Este 0 -- -- 95
2020-04-04 05:00:00 -0.3 5 Nordeste 8 Nordeste 0 -- -- 100
2020-04-04 04:00:00 0.2 4 Nordeste 5 Nordeste 0 -- -- 98
2020-04-04 03:00:00 0.9 2 Nordeste 5 Nordeste 0 -- -- 95
2020-04-04 02:00:00 1.4 0 Calma 3 Nordeste 0 -- -- 95
2020-04-04 01:00:00 2 2 Nordeste 6 Este 0 -- -- 89
2020-04-04 00:00:00 2.4 4 Sudeste 9 Este 0 -- -- 84
2020-04-03 23:00:00 3.2 4 Nordeste 12 Nordeste 0 -- -- 65
2020-04-03 22:00:00 6.4 8 Sudoeste 11 Sudoeste 0 -- -- 46
2020-04-03 21:00:00 7.3 4 Sur 9 Sudeste 0 -- -- 49
2020-04-03 20:00:00 11.8 8 Sudeste 21 Sudeste 0 -- -- 37
2020-04-03 19:00:00 13.5 12 Sudeste 23 Sudeste 0 -- -- 32
2020-04-03 18:00:00 13.9 15 Este 24 Este 0 -- -- 37
2020-04-03 17:00:00 14.4 9 Sur 24 Sudeste 0 -- -- 37
2020-04-03 16:00:00 13.2 12 Sur 23 Sur 0 -- -- 40
2020-04-03 15:00:00 13.6 4 Oeste 24 Oeste 0 -- -- 33
2020-04-03 14:00:00 11.7 6 Sudeste 15 Sur 0 -- -- 32
2020-04-03 13:00:00 10.3 6 Norte 11 Norte 0 -- -- 40
2020-04-03 12:00:00 10.4 4 Nordeste 15 Oeste 0 -- -- 40
2020-04-03 11:00:00 7.9 5 Noroeste 12 Oeste 0 -- -- 51
2020-04-03 10:00:00 5.3 3 Norte 6 Noroeste 0 -- -- 60
2020-04-03 09:00:00 1.8 8 Oeste 14 Oeste 0 -- -- 77
2020-04-03 08:00:00 -3.2 2 Norte 6 Norte 0 -- -- 97
2020-04-03 07:00:00 -2.7 6 Noroeste 8 Noroeste 0 -- -- 96
2020-04-03 06:00:00 -2.5 3 Oeste 9 Sudoeste 0 -- -- 95
2020-04-03 05:00:00 -3 0 Calma 9 Norte 0 -- -- 95
2020-04-03 04:00:00 -1.3 9 Noroeste 13 Noroeste 0 -- -- 90
2020-04-03 03:00:00 -1.5 6 Oeste 12 Norte 0 -- -- 89
2020-04-03 02:00:00 1 6 Norte 10 Noroeste 0 -- -- 80
2020-04-03 01:00:00 0.8 8 Noroeste 14 Norte 0 -- -- 85
2020-04-03 00:00:00 2.6 9 Norte 23 Nordeste 0 -- -- 81
2020-04-02 23:00:00 4.1 14 Norte 30 Nordeste 0 -- -- 75
2020-04-02 22:00:00 5.5 11 Norte 24 Nordeste 0 -- -- 77
2020-04-02 21:00:00 5.8 14 Norte 26 Norte 0 -- -- 77
2020-04-02 20:00:00 7.2 18 Norte 30 Nordeste 0 -- -- 69
2020-04-02 19:00:00 7 19 Norte 37 Norte 0 -- -- 70
2020-04-02 18:00:00 8.3 15 Norte 31 Norte 0 -- -- 67
2020-04-02 17:00:00 7.4 16 Norte 35 Nordeste 0 -- -- 73
2020-04-02 16:00:00 8.2 18 Nordeste 32 Nordeste 0 -- -- 67
2020-04-02 15:00:00 8.1 16 Norte 32 Norte 0 -- -- 72
2020-04-02 14:00:00 7.6 18 Norte 39 Nordeste 0 -- -- 74
2020-04-02 13:00:00 7.7 15 Nordeste 32 Norte 0 -- -- 72
2020-04-02 12:00:00 7.7 19 Nordeste 30 Nordeste 0 -- -- 72
2020-04-02 11:00:00 5.8 8 Norte 20 Norte 0 -- -- 92
2020-04-02 10:00:00 4.9 8 Norte 13 Nordeste 0 -- -- 94
2020-04-02 09:00:00 3.9 4 Norte 8 Norte 0.4 -- -- 100
2020-04-02 08:00:00 3.8 4 Nordeste 9 Este 0 -- -- 100
2020-04-02 07:00:00 3.9 3 Este 6 Este 0 -- -- 99
2020-04-02 06:00:00 4 0 Calma 8 Este 0 -- -- 98
2020-04-02 05:00:00 4.1 5 Nordeste 9 Nordeste 0 -- -- 99
2020-04-02 04:00:00 4.2 2 Nordeste 9 Nordeste 0 -- -- 99
2020-04-02 03:00:00 4.3 3 Este 7 Nordeste 0 -- -- 100
2020-04-02 02:00:00 4.4 3 Nordeste 10 Nordeste 0 -- -- 99
2020-04-02 01:00:00 4.5 0 Calma 9 Este 0 -- -- 99
2020-04-02 00:00:00 4.6 6 Este 12 Este 0 -- -- 99
2020-04-01 23:00:00 4.6 7 Este 13 Este 0 -- -- 99
2020-04-01 22:00:00 4.5 8 Este 15 Nordeste 0 -- -- 98
2020-04-01 21:00:00 5 8 Este 15 Este 0.2 -- -- 96
2020-04-01 20:00:00 5.4 9 Este 17 Este 0 -- -- 96
2020-04-01 19:00:00 5.9 10 Este 21 Este 0.2 -- -- 93
2020-04-01 18:00:00 5.8 15 Este 24 Este 0 -- -- 96
2020-04-01 17:00:00 6.9 14 Este 25 Este 0 -- -- 88
2020-04-01 16:00:00 7.6 10 Este 14 Este 0 -- -- 83
2020-04-01 15:00:00 6.9 8 Este 17 Este 0 -- -- 87
2020-04-01 14:00:00 5.5 12 Este 19 Este 0 -- -- 95
2020-04-01 13:00:00 5.1 14 Este 21 Sudeste 0 -- -- 97
2020-04-01 12:00:00 4.3 11 Este 21 Este 0 -- -- 99
2020-04-01 11:00:00 3.9 13 Este 20 Este 0 -- -- 100
2020-04-01 10:00:00 3.7 14 Este 19 Este 0.2 -- -- 100
2020-04-01 09:00:00 3.5 12 Este 20 Este 0.2 -- -- 100
2020-04-01 08:00:00 3.1 14 Este 21 Este 0.2 -- -- 100
2020-04-01 07:00:00 3.3 14 Este 21 Este 1.4 -- -- 100
2020-04-01 06:00:00 3.1 7 Sudeste 14 Sudeste 3.8 -- -- 100
2020-04-01 05:00:00 3.4 6 Sudeste 27 Sudeste 4.4 -- -- 100
2020-04-01 04:00:00 3.4 11 Sudeste 19 Este 0.8 -- -- 100
2020-04-01 03:00:00 3.2 12 Este 27 Este 0 -- -- 100
2020-04-01 02:00:00 3.1 17 Este 29 Este 0 -- -- 100
2020-04-01 01:00:00 3 15 Este 22 Este 0 -- -- 100
2020-04-01 00:00:00 2.9 14 Este 23 Este 1.2 -- -- 100
2020-03-31 23:00:00 2.6 14 Este 24 Este 0.8 -- -- 100
2020-03-31 22:00:00 2.5 16 Este 23 Este 0 -- -- 100
2020-03-31 21:00:00 2.2 10 Este 25 Este 0 -- -- 99
2020-03-31 20:00:00 2.3 15 Este 21 Nordeste 0.4 -- -- 99
2020-03-31 19:00:00 2.6 14 Este 33 Este 0 -- -- 97
2020-03-31 18:00:00 2.7 22 Este 33 Este 0 -- -- 97
2020-03-31 17:00:00 1.3 12 Nordeste 22 Este 0 -- -- 98
2020-03-31 16:00:00 0.7 15 Este 31 Este 0 -- -- 98
2020-03-31 15:00:00 0.2 17 Este 25 Este 0.8 -- -- 99
2020-03-31 14:00:00 -0.2 14 Este 26 Este 1 -- -- 99
2020-03-31 13:00:00 -0.3 17 Este 25 Este 0.8 -- -- 96
2020-03-31 12:00:00 -0.7 15 Este 26 Este 0.4 -- -- 96
2020-03-31 11:00:00 -1.1 16 Este 27 Este 0.4 -- -- 96
2020-03-31 10:00:00 -1.8 14 Este 24 Este 0.4 -- -- 97
2020-03-31 09:00:00 -2.5 16 Este 24 Este 0.4 -- -- 97
2020-03-31 08:00:00 -2.9 15 Este 28 Este 0 -- -- 97
2020-03-31 07:00:00 -3 16 Este 28 Este 0 -- -- 96
2020-03-31 06:00:00 -3 17 Este 32 Nordeste 0.2 -- -- 95
2020-03-31 05:00:00 -3 17 Este 26 Este 0 -- -- 95
2020-03-31 04:00:00 -2.8 12 Nordeste 26 Este 0.2 -- -- 95
2020-03-31 03:00:00 -2.8 15 Este 25 Nordeste 0.2 -- -- 95
2020-03-31 02:00:00 -2.5 16 Nordeste 27 Nordeste 0 -- -- 91
2020-03-31 01:00:00 -1.9 14 Nordeste 27 Nordeste 0 -- -- 85
2020-03-31 00:00:00 -1.5 18 Nordeste 28 Nordeste 0 -- -- 84
2020-03-30 23:00:00 -0.9 17 Este 29 Nordeste 0 -- -- 75
2020-03-30 22:00:00 0 18 Este 27 Este 0 -- -- 62
2020-03-30 21:00:00 0.6 13 Nordeste 26 Nordeste 0 -- -- 55
2020-03-30 20:00:00 1.4 12 Nordeste 27 Nordeste 0 -- -- 48
2020-03-30 19:00:00 2 15 Nordeste 26 Nordeste 0 -- -- 47
2020-03-30 18:00:00 3.1 13 Nordeste 29 Nordeste 0 -- -- 46
2020-03-30 17:00:00 3.2 10 Norte 26 Norte 0 -- -- 41
2020-03-30 16:00:00 3 15 Norte 30 Norte 0 -- -- 47
2020-03-30 15:00:00 2.2 16 Norte 27 Norte 0 -- -- 49
2020-03-30 14:00:00 1.6 16 Norte 31 Norte 0 -- -- 55
2020-03-30 13:00:00 0.5 19 Norte 37 Nordeste 0 -- -- 59
2020-03-30 12:00:00 0.1 18 Norte 32 Nordeste 0 -- -- 62
2020-03-30 11:00:00 0.1 18 Nordeste 34 Norte 0 -- -- 62
2020-03-30 10:00:00 -0.8 18 Nordeste 34 Norte 0 -- -- 66
2020-03-30 09:00:00 -1.5 15 Norte 35 Norte 0 -- -- 79
2020-03-30 08:00:00 -0.7 24 Nordeste 37 Norte 0 -- -- 67
2020-03-30 07:00:00 -0.5 20 Norte 42 Norte 0 -- -- 78
2020-03-30 06:00:00 0.2 17 Nordeste 33 Nordeste 0 -- -- 81
2020-03-30 05:00:00 0.5 21 Nordeste 33 Norte 0 -- -- 85
2020-03-30 04:00:00 0.5 15 Nordeste 27 Norte 0 -- -- 86
2020-03-30 03:00:00 0.4 5 Nordeste 11 Norte 0 -- -- 91
2020-03-30 02:00:00 1.6 7 Norte 18 Norte 0 -- -- 88
2020-03-30 01:00:00 2.4 10 Norte 19 Norte 0 -- -- 83
2020-03-30 00:00:00 2.6 9 Nordeste 28 Nordeste 0 -- -- 85
2020-03-29 23:00:00 4.1 14 Nordeste 26 Nordeste 0 -- -- 78
2020-03-29 22:00:00 5 17 Nordeste 28 Nordeste 0 -- -- 74
2020-03-29 21:00:00 6 16 Nordeste 35 Nordeste 0 -- -- 65
2020-03-29 20:00:00 8.1 17 Nordeste 36 Nordeste 0 -- -- 56
2020-03-29 19:00:00 11.5 19 Norte 35 Norte 0 -- -- 44
2020-03-29 18:00:00 12 17 Nordeste 31 Este 0 -- -- 38
2020-03-29 17:00:00 13.4 17 Nordeste 26 Este 0 -- -- 35
2020-03-29 16:00:00 13.7 10 Nordeste 18 Nordeste 0 -- -- 36
2020-03-29 15:00:00 15.2 11 Norte 24 Nordeste 0 -- -- 34
2020-03-29 14:00:00 15.4 8 Noroeste 20 Nordeste 0 -- -- 39
2020-03-29 13:00:00 13.5 9 Nordeste 16 Norte 0 -- -- 41
2020-03-29 12:00:00 14 4 Este 12 Noroeste 0 -- -- 44
2020-03-29 11:00:00 12.8 5 Oeste 15 Oeste 0 -- -- 46
2020-03-29 10:00:00 10.6 0 Calma 5 Norte 0 -- -- 55
2020-03-29 09:00:00 6.5 0 Calma 6 Noroeste 0 -- -- 67
2020-03-29 08:00:00 0.3 4 Noroeste 5 Norte 0 -- -- 91
2020-03-29 07:00:00 0.3 4 Noroeste 5 Noroeste 0 -- -- 88
2020-03-29 06:00:00 0.8 3 Noroeste 4 Norte 0 -- -- 86
2020-03-29 05:00:00 0.9 3 Noroeste 5 Norte 0 -- -- 87
2020-03-29 03:00:00 1.8 2 Nordeste 3 Nordeste 0 -- -- 86
2020-03-29 01:00:00 2.9 3 Nordeste 5 Este 0 -- -- 79
2020-03-29 00:00:00 3.1 2 Nordeste 5 Norte 0 -- -- 81
2020-03-28 23:00:00 2.4 4 Norte 7 Nordeste 0 -- -- 82
2020-03-28 22:00:00 4 6 Nordeste 10 Norte 0 -- -- 75
2020-03-28 21:00:00 6.1 6 Sur 8 Sur 0 -- -- 61
2020-03-28 20:00:00 7.3 5 Sudeste 9 Sudeste 0 -- -- 57
2020-03-28 19:00:00 10.5 4 Sudeste 16 Este 0 -- -- 51
2020-03-28 18:00:00 13.2 8 Este 21 Este 0 -- -- 38
2020-03-28 17:00:00 13.6 8 Sudeste 21 Sudeste 0 -- -- 35
2020-03-28 16:00:00 14.1 6 Este 22 Sudeste 0 -- -- 36
2020-03-28 15:00:00 13.4 6 Sudeste 22 Sudeste 0 -- -- 35
2020-03-28 14:00:00 12.5 8 Este 24 Sudeste 0 -- -- 39
2020-03-28 13:00:00 11.7 7 Este 22 Este 0 -- -- 38
2020-03-28 12:00:00 10.8 8 Este 15 Sudeste 0 -- -- 41
2020-03-28 11:00:00 9.9 8 Este 13 Nordeste 0 -- -- 44
2020-03-28 10:00:00 9.4 4 Este 7 Este 0 -- -- 42
2020-03-28 09:00:00 7 3 Norte 5 Noroeste 0 -- -- 49
2020-03-28 08:00:00 1.3 5 Norte 7 Norte 0 -- -- 63
2020-03-28 07:00:00 -2.9 4 Nordeste 5 Nordeste 0 -- -- 77
2020-03-28 06:00:00 -2.1 5 Noroeste 10 Norte 0 -- -- 75
2020-03-28 05:00:00 -3 4 Norte 6 Este 0 -- -- 82
2020-03-28 04:00:00 -0.9 5 Este 8 Este 0 -- -- 71
2020-03-28 03:00:00 -0.6 7 Nordeste 9 Nordeste 0 -- -- 71
2020-03-28 02:00:00 -0.4 4 Este 8 Nordeste 0 -- -- 72
2020-03-28 01:00:00 -0.4 5 Nordeste 7 Nordeste 0 -- -- 77
2020-03-28 00:00:00 0.6 5 Este 8 Este 0 -- -- 72
2020-03-27 23:00:00 -1 2 Norte 9 Nordeste 0 -- -- 76
2020-03-27 22:00:00 1.5 7 Este 19 Este 0 -- -- 68
2020-03-27 21:00:00 3.4 11 Este 16 Este 0 -- -- 58
2020-03-27 20:00:00 4.5 10 Este 18 Este 0 -- -- 58
2020-03-27 19:00:00 7.5 12 Este 22 Este 0 -- -- 39
2020-03-27 18:00:00 9.3 14 Este 26 Este 0 -- -- 34
2020-03-27 17:00:00 9.8 16 Este 27 Este 0 -- -- 29
2020-03-27 16:00:00 10 14 Este 32 Este 0 -- -- 37
2020-03-27 15:00:00 9 12 Este 33 Este 0 -- -- 37
2020-03-27 14:00:00 8.7 15 Este 30 Sudeste 0 -- -- 42
2020-03-27 13:00:00 7.3 13 Este 26 Este 0 -- -- 51
2020-03-27 12:00:00 6.4 16 Este 27 Este 0 -- -- 52
2020-03-27 11:00:00 5.1 13 Este 23 Nordeste 0 -- -- 52
2020-03-27 10:00:00 3.3 14 Nordeste 26 Este 0 -- -- 60
2020-03-27 09:00:00 1.2 14 Nordeste 21 Nordeste 0 -- -- 73
2020-03-27 08:00:00 -1 7 Nordeste 15 Este 0 -- -- 82
2020-03-27 07:00:00 -3.5 10 Este 12 Este 0 -- -- 90
2020-03-27 06:00:00 -2.7 8 Este 14 Nordeste 0 -- -- 83
2020-03-27 05:00:00 -2.6 8 Nordeste 16 Nordeste 0 -- -- 78
2020-03-27 04:00:00 -2.1 8 Nordeste 15 Nordeste 0 -- -- 75
2020-03-27 03:00:00 -1.6 9 Nordeste 15 Nordeste 0 -- -- 69
2020-03-27 02:00:00 -0.8 13 Nordeste 23 Nordeste 0 -- -- 66
2020-03-27 01:00:00 -0.3 14 Nordeste 24 Nordeste 0 -- -- 67
2020-03-27 00:00:00 0.1 12 Este 18 Este 0 -- -- 71
2020-03-26 23:00:00 0 10 Este 22 Este 0 -- -- 69
2020-03-26 22:00:00 -0.3 7 Nordeste 11 Nordeste 0 -- -- 70
2020-03-26 21:00:00 1.5 9 Norte 22 Norte 0 -- -- 60
2020-03-26 20:00:00 2.6 9 Norte 24 Norte 0 -- -- 53
2020-03-26 19:00:00 4.7 16 Norte 31 Norte 0 -- -- 46
2020-03-26 18:00:00 6.9 17 Norte 29 Noroeste 0 -- -- 42
2020-03-26 17:00:00 8.1 17 Nordeste 33 Norte 0 -- -- 35
2020-03-26 16:00:00 8.3 16 Norte 33 Norte 0 -- -- 36
2020-03-26 15:00:00 8 18 Norte 42 Norte 0 -- -- 44
2020-03-26 14:00:00 7 25 Norte 45 Norte 0 -- -- 45
2020-03-26 13:00:00 5.9 17 Norte 36 Nordeste 0 -- -- 52
2020-03-26 12:00:00 5.8 19 Norte 33 Norte 0 -- -- 54
2020-03-26 11:00:00 5.6 16 Noroeste 28 Noroeste 0 -- -- 58
2020-03-26 10:00:00 4.2 9 Oeste 15 Sudoeste 0 -- -- 63
2020-03-26 09:00:00 2 6 Oeste 14 Oeste 0 -- -- 66
2020-03-26 08:00:00 1 10 Oeste 14 Oeste 0 -- -- 69
2020-03-26 07:00:00 -1 10 Oeste 21 Noroeste 0 -- -- 78
2020-03-26 06:00:00 -0.9 6 Noroeste 15 Noroeste 0 -- -- 77
2020-03-26 05:00:00 0.1 12 Noroeste 23 Noroeste 0 -- -- 71
2020-03-26 04:00:00 0 9 Nordeste 14 Norte 0 -- -- 70
2020-03-26 03:00:00 -1.5 5 Norte 12 Este 0 -- -- 84
2020-03-26 02:00:00 -1.7 8 Noroeste 10 Noroeste 0 -- -- 92
2020-03-26 01:00:00 -0.2 4 Norte 6 Este 0 -- -- 84
2020-03-26 00:00:00 2.4 6 Nordeste 14 Norte 0 -- -- 72
2020-03-25 23:00:00 3.3 9 Nordeste 16 Nordeste 0 -- -- 68
2020-03-25 22:00:00 5.1 7 Norte 13 Norte 0 -- -- 74
2020-03-25 21:00:00 3.7 3 Nordeste 13 Sur 0 -- -- 87
2020-03-25 20:00:00 5.5 6 Sudoeste 13 Sur 0 -- -- 79
2020-03-25 19:00:00 8.8 5 Sudeste 15 Este 0 -- -- 60
2020-03-25 18:00:00 10.3 9 Este 22 Este 0 -- -- 57
2020-03-25 17:00:00 10.1 15 Sudeste 27 Sudeste 0 -- -- 59
2020-03-25 16:00:00 12 17 Este 35 Este 0 -- -- 53
2020-03-25 15:00:00 11.9 4 Nordeste 18 Norte 0 -- -- 42
2020-03-25 14:00:00 11.6 5 Este 20 Este 0 -- -- 45
2020-03-25 13:00:00 13.2 6 Norte 21 Nordeste 0 -- -- 41
2020-03-25 12:00:00 11 6 Norte 17 Este 0 -- -- 47
2020-03-25 11:00:00 9.5 11 Este 19 Este 0 -- -- 65
2020-03-25 10:00:00 8.6 2 Este 5 Sudoeste 0 -- -- 65
2020-03-25 09:00:00 4.5 5 Sudeste 8 Sudeste 0 -- -- 86
2020-03-25 08:00:00 3.3 4 Noroeste 9 Oeste 0 -- -- 89
2020-03-25 07:00:00 0 5 Noroeste 6 Noroeste 0 -- -- 100
2020-03-25 06:00:00 0.8 6 Oeste 9 Noroeste 0 -- -- 100
2020-03-25 05:00:00 0.6 7 Noroeste 9 Noroeste 0 -- -- 100
2020-03-25 04:00:00 1.4 4 Noroeste 8 Noroeste 0 -- -- 99
2020-03-25 03:00:00 1.1 5 Noroeste 7 Oeste 0 -- -- 98
2020-03-25 02:00:00 1.4 4 Oeste 7 Noroeste 0 -- -- 97
2020-03-25 01:00:00 1.6 5 Noroeste 8 Norte 0 -- -- 97
2020-03-25 00:00:00 1.8 5 Norte 13 Norte 0 -- -- 94
2020-03-24 23:00:00 4.2 8 Sur 12 Sudoeste 0 -- -- 85
2020-03-24 22:00:00 2.1 0 Calma 9 Sudeste 0 -- -- 92
2020-03-24 21:00:00 4 7 Sudeste 10 Sudeste 0 -- -- 84
2020-03-24 20:00:00 4.8 6 Sudeste 12 Este 0 -- -- 83
2020-03-24 19:00:00 8.2 10 Este 19 Este 0 -- -- 68
2020-03-24 18:00:00 9.2 12 Este 23 Este 0 -- -- 66
2020-03-24 17:00:00 9.9 15 Este 26 Sudeste 0 -- -- 65
2020-03-24 16:00:00 9.2 16 Sudeste 30 Sudeste 0 -- -- 67
2020-03-24 15:00:00 8.1 16 Este 32 Este 0 -- -- 71
2020-03-24 14:00:00 8.5 20 Este 33 Este 0 -- -- 69
2020-03-24 13:00:00 9.3 25 Este 35 Este 0 -- -- 68
2020-03-24 12:00:00 8 26 Este 37 Este 0 -- -- 76
2020-03-24 11:00:00 7.1 23 Este 34 Este 0 -- -- 79
2020-03-24 10:00:00 7.2 19 Este 30 Este 0 -- -- 82
2020-03-24 09:00:00 5.9 15 Este 25 Este 0 -- -- 90
2020-03-24 08:00:00 4.6 13 Este 25 Este 0 -- -- 94
2020-03-24 07:00:00 4.8 13 Este 24 Este 0 -- -- 95
2020-03-24 06:00:00 5.1 14 Este 26 Este 0 -- -- 96
2020-03-24 05:00:00 5.6 13 Este 23 Este 0 -- -- 96
2020-03-24 04:00:00 5.8 12 Este 21 Este 0 -- -- 98
2020-03-24 03:00:00 5.8 14 Este 22 Este 0 -- -- 96
2020-03-24 02:00:00 5.6 10 Este 25 Este 0 -- -- 96
2020-03-24 01:00:00 5.9 17 Este 26 Este 0 -- -- 95
2020-03-24 00:00:00 6.3 12 Este 24 Este 0 -- -- 95
2020-03-23 23:00:00 6.4 14 Este 24 Este 0 -- -- 94
2020-03-23 22:00:00 6.5 13 Este 20 Este 0 -- -- 94
2020-03-23 21:00:00 6.6 13 Este 27 Este 0 -- -- 92
2020-03-23 20:00:00 7.4 17 Este 28 Este 0 -- -- 86
2020-03-23 19:00:00 8.2 17 Este 28 Este 0 -- -- 76
2020-03-23 18:00:00 9.4 16 Este 29 Este 0 -- -- 71
2020-03-23 17:00:00 9.3 19 Este 31 Este 0 -- -- 73
2020-03-23 16:00:00 8.9 21 Este 37 Este 0 -- -- 75
2020-03-23 15:00:00 9.8 26 Este 38 Este 0 -- -- 73
2020-03-23 14:00:00 8.8 17 Este 32 Este 0 -- -- 76
2020-03-23 13:00:00 10.4 16 Este 31 Este 0 -- -- 63
2020-03-23 12:00:00 9.2 21 Este 35 Este 0 -- -- 75
2020-03-23 11:00:00 8.1 23 Este 31 Este 0 -- -- 77
2020-03-23 10:00:00 7.1 14 Este 23 Este 0 -- -- 86
2020-03-23 09:00:00 5.9 12 Este 18 Este 0 -- -- 93
2020-03-23 08:00:00 5.2 9 Este 21 Este 0 -- -- 95
2020-03-23 07:00:00 5 12 Este 23 Nordeste 0 -- -- 93
2020-03-23 06:00:00 4.7 10 Este 19 Nordeste 0 -- -- 93
2020-03-23 05:00:00 4 8 Nordeste 17 Este 0 -- -- 95
2020-03-23 04:00:00 4.9 14 Este 21 Este 0 -- -- 91
2020-03-23 03:00:00 4.2 6 Este 13 Este 0 -- -- 91
2020-03-23 02:00:00 4.4 6 Nordeste 12 Nordeste 0 -- -- 91
2020-03-23 01:00:00 4.9 6 Nordeste 17 Este 0 -- -- 88
2020-03-23 00:00:00 5.6 9 Este 15 Este 0 -- -- 88
2020-03-22 23:00:00 5.3 9 Este 16 Este 0 -- -- 89
2020-03-22 22:00:00 5.1 7 Este 19 Este 0 -- -- 88
2020-03-22 21:00:00 5.5 12 Este 17 Este 0 -- -- 86
2020-03-22 20:00:00 5.8 6 Sudeste 19 Este 0 -- -- 81
2020-03-22 19:00:00 8.7 13 Este 28 Este 0 -- -- 66
2020-03-22 18:00:00 10.3 20 Este 32 Este 0 -- -- 59
2020-03-22 17:00:00 9.9 20 Este 36 Este 0 -- -- 61
2020-03-22 16:00:00 11.6 18 Este 35 Este 0 -- -- 58
2020-03-22 15:00:00 10.6 12 Este 31 Este 0 -- -- 62
2020-03-22 14:00:00 10.8 20 Este 30 Este 0 -- -- 58
2020-03-22 13:00:00 11.5 15 Este 30 Este 0 -- -- 56
2020-03-22 12:00:00 10.4 15 Este 24 Este 0 -- -- 62
2020-03-22 11:00:00 8.7 13 Este 24 Este 0 -- -- 69
2020-03-22 10:00:00 8.6 10 Este 14 Este 0 -- -- 76
2020-03-22 09:00:00 6.3 5 Este 8 Este 0 -- -- 92
2020-03-22 08:00:00 5.2 3 Nordeste 8 Norte 0 -- -- 99
2020-03-22 07:00:00 4.8 4 Norte 7 Norte 0 -- -- 99
2020-03-22 06:00:00 4.9 0 Calma 10 Sur 0 -- -- 98
2020-03-22 05:00:00 4.9 4 Sur 7 Norte 0 -- -- 98
2020-03-22 04:00:00 4.6 3 Norte 7 Noroeste 0 -- -- 99
2020-03-22 03:00:00 4.7 3 Norte 6 Norte 0 -- -- 98
2020-03-22 02:00:00 4.7 3 Noroeste 9 Sudoeste 0 -- -- 98
2020-03-22 01:00:00 4.8 7 Sudoeste 14 Sur 0 -- -- 97
2020-03-22 00:00:00 5 9 Sur 13 Sur 0 -- -- 99
2020-03-21 23:00:00 5.3 6 Sur 13 Sur 0 -- -- 99
2020-03-21 22:00:00 5.3 6 Sudeste 8 Sudeste 0 -- -- 95
2020-03-21 21:00:00 6.6 5 Sudeste 8 Sudeste 0 -- -- 92
2020-03-21 20:00:00 7.1 4 Sudeste 6 Sur 0 -- -- 89
2020-03-21 19:00:00 7.4 4 Sudoeste 12 Sudoeste 0 -- -- 87
2020-03-21 18:00:00 8.1 5 Sudoeste 15 Sur 0 -- -- 81
2020-03-21 17:00:00 8.5 4 Sur 14 Sur 0 -- -- 75
2020-03-21 16:00:00 9 6 Sur 14 Sur 0 -- -- 69
2020-03-21 15:00:00 9.6 8 Sur 19 Sur 0 -- -- 65
2020-03-21 14:00:00 9.4 13 Sur 21 Sur 0 -- -- 66
2020-03-21 13:00:00 9.6 12 Sudeste 22 Sudeste 0 -- -- 69
2020-03-21 12:00:00 8.4 11 Sudeste 20 Sudeste 0 -- -- 77
2020-03-21 11:00:00 7.5 14 Sur 22 Sudeste 0 -- -- 81
2020-03-21 10:00:00 7.5 10 Sudeste 17 Este 0 -- -- 84
2020-03-21 09:00:00 5.6 11 Este 16 Este 0 -- -- 93
2020-03-21 08:00:00 4.8 4 Nordeste 7 Nordeste 0 -- -- 93
2020-03-21 07:00:00 4.4 4 Nordeste 5 Nordeste 0 -- -- 94
2020-03-21 06:00:00 4.5 3 Nordeste 4 Nordeste 0 -- -- 95
2020-03-21 05:00:00 4.5 0 Calma 8 Nordeste 0 -- -- 96
2020-03-21 04:00:00 4.3 6 Sudeste 16 Este 0 -- -- 96
2020-03-21 03:00:00 5.2 11 Este 16 Este 0 -- -- 92
2020-03-21 02:00:00 5.9 9 Este 13 Este 0 -- -- 93
2020-03-21 01:00:00 6 8 Este 12 Este 0 -- -- 93
2020-03-21 00:00:00 6 11 Este 17 Este 0 -- -- 94
2020-03-20 23:00:00 5.9 8 Este 13 Este 0 -- -- 95
2020-03-20 22:00:00 7.2 6 Este 13 Este 0 -- -- 91
2020-03-20 21:00:00 7.8 7 Este 18 Este 0 -- -- 88
2020-03-20 20:00:00 8.5 9 Sudeste 20 Este 0 -- -- 84
2020-03-20 19:00:00 9.6 5 Sudeste 15 Sudeste 0 -- -- 78
2020-03-20 18:00:00 10.7 12 Sudeste 18 Sudeste 0 -- -- 71
2020-03-20 17:00:00 9.7 14 Este 21 Este 0 -- -- 77
2020-03-20 16:00:00 11.2 13 Sudeste 21 Sur 0 -- -- 68
2020-03-20 15:00:00 10 10 Sur 24 Sur 0 -- -- 72
2020-03-20 14:00:00 10.3 14 Sur 23 Sur 0 -- -- 69
2020-03-20 13:00:00 9.7 12 Sudoeste 21 Sur 0 -- -- 75
2020-03-20 12:00:00 7.9 9 Sur 17 Sudeste 0 -- -- 81
2020-03-20 11:00:00 6.9 9 Sudeste 17 Este 0 -- -- 86
2020-03-20 10:00:00 5.5 11 Este 14 Este 0 -- -- 92
2020-03-20 09:00:00 5 10 Este 14 Este 0 -- -- 92
2020-03-20 08:00:00 4.4 8 Este 12 Este 0 -- -- 91
2020-03-20 07:00:00 4.1 4 Nordeste 9 Este 0 -- -- 92
2020-03-20 06:00:00 4.3 4 Sudeste 12 Este 0 -- -- 92
2020-03-20 05:00:00 4.7 9 Este 12 Este 0 -- -- 91
2020-03-20 04:00:00 5.5 6 Este 9 Este 0 -- -- 90
2020-03-20 03:00:00 5.6 5 Sudeste 8 Sudeste 0 -- -- 90
2020-03-20 02:00:00 4.8 0 Calma 8 Este 0 -- -- 93
2020-03-20 01:00:00 3.8 5 Este 12 Este 0 -- -- 93
2020-03-20 00:00:00 5.1 10 Este 15 Este 0 -- -- 88
2020-03-19 23:00:00 4.9 4 Este 17 Este 0 -- -- 88
2020-03-19 22:00:00 6.3 10 Este 19 Este 0 -- -- 84
2020-03-19 21:00:00 7.2 16 Este 25 Este 0 -- -- 75
2020-03-19 20:00:00 8 14 Este 23 Este 0 -- -- 68
2020-03-19 19:00:00 10.1 12 Este 24 Este 0 -- -- 66
2020-03-19 18:00:00 12.7 14 Este 21 Este 0 -- -- 52
2020-03-19 17:00:00 14 13 Este 24 Este 0 -- -- 44
2020-03-19 16:00:00 13.2 14 Este 24 Este 0 -- -- 38
2020-03-19 15:00:00 12.6 16 Este 28 Sudeste 0 -- -- 38
2020-03-19 14:00:00 13.1 17 Sudeste 28 Sudeste 0 -- -- 39
2020-03-19 13:00:00 12.3 15 Sudeste 27 Sudeste 0 -- -- 52
2020-03-19 12:00:00 11.5 13 Este 27 Este 0 -- -- 60
2020-03-19 11:00:00 10.1 18 Este 26 Este 0 -- -- 59
2020-03-19 10:00:00 8.5 8 Este 13 Este 0 -- -- 70
2020-03-19 09:00:00 6.5 9 Este 14 Este 0 -- -- 82
2020-03-19 08:00:00 5.1 8 Este 11 Nordeste 0 -- -- 87
2020-03-19 07:00:00 4.5 6 Nordeste 14 Nordeste 0 -- -- 92
2020-03-19 06:00:00 4.4 11 Nordeste 14 Nordeste 0 -- -- 94
2020-03-19 05:00:00 4.3 6 Nordeste 8 Nordeste 0 -- -- 100
2020-03-19 04:00:00 3.5 5 Nordeste 6 Nordeste 0 -- -- 100
2020-03-19 03:00:00 4.2 4 Este 7 Nordeste 0 -- -- 99
2020-03-19 02:00:00 4.9 4 Nordeste 9 Nordeste 0 -- -- 99
2020-03-19 01:00:00 5 4 Este 9 Este 0 -- -- 98
2020-03-19 00:00:00 5.5 8 Este 9 Este 0 -- -- 96
2020-03-18 23:00:00 6.2 5 Este 6 Este 0 -- -- 95
2020-03-18 22:00:00 8.3 5 Nordeste 8 Este 0 -- -- 86
2020-03-18 21:00:00 9 5 Nordeste 14 Este 0 -- -- 84
2020-03-18 20:00:00 9.7 8 Nordeste 13 Este 0 -- -- 85
2020-03-18 19:00:00 10.9 6 Este 12 Este 0 -- -- 80
2020-03-18 18:00:00 12.2 9 Sudeste 17 Sudeste 0 -- -- 71
2020-03-18 17:00:00 13.3 9 Sudeste 17 Este 0 -- -- 62
2020-03-18 16:00:00 13.9 9 Este 18 Este 0 -- -- 57
2020-03-18 15:00:00 13.4 9 Este 19 Este 0 -- -- 57
2020-03-18 14:00:00 13.4 10 Este 19 Este 0 -- -- 55
2020-03-18 13:00:00 12.6 10 Este 20 Este 0 -- -- 58
2020-03-18 12:00:00 11.8 13 Este 21 Este 0 -- -- 65
2020-03-18 11:00:00 11.1 11 Este 19 Este 0 -- -- 66
2020-03-18 10:00:00 9.7 10 Este 17 Este 0 -- -- 73
2020-03-18 09:00:00 7.1 7 Nordeste 13 Nordeste 0 -- -- 89
2020-03-18 08:00:00 5.1 6 Nordeste 15 Este 0 -- -- 95
2020-03-18 07:00:00 5 10 Este 16 Este 0 -- -- 96
2020-03-18 06:00:00 5.3 12 Este 17 Este 0 -- -- 98
2020-03-18 05:00:00 4.7 9 Este 12 Este 0 -- -- 100
2020-03-18 04:00:00 4.5 4 Norte 9 Nordeste 0 -- -- 100
2020-03-18 03:00:00 5.3 3 Norte 13 Nordeste 0 -- -- 100
2020-03-18 02:00:00 5.9 4 Nordeste 12 Este 0 -- -- 99
2020-03-18 01:00:00 6.1 9 Este 16 Este 0 -- -- 99
2020-03-18 00:00:00 6.2 7 Este 19 Este 0 -- -- 98
2020-03-17 23:00:00 6.7 14 Este 22 Este 0 -- -- 97
2020-03-17 22:00:00 7.4 14 Este 27 Este 0 -- -- 97
2020-03-17 21:00:00 7.7 17 Este 27 Este 0 -- -- 95
2020-03-17 20:00:00 7.9 13 Este 23 Este 0 -- -- 95
2020-03-17 19:00:00 8.1 16 Sudeste 34 Este 0 -- -- 95
2020-03-17 18:00:00 8.4 19 Este 31 Este 0 -- -- 94
2020-03-17 17:00:00 8.4 15 Este 27 Este 0 -- -- 96
2020-03-17 16:00:00 9.4 19 Este 32 Sudeste 0 -- -- 88
2020-03-17 15:00:00 9.3 22 Sudeste 36 Este 0 -- -- 89
2020-03-17 14:00:00 8.5 22 Este 36 Este 0 -- -- 93
2020-03-17 13:00:00 7.7 19 Este 30 Este 0 -- -- 97
2020-03-17 12:00:00 6.6 16 Este 29 Este 0 -- -- 99
2020-03-17 11:00:00 6.2 19 Este 32 Este 0.2 -- -- 98
2020-03-17 10:00:00 5.7 15 Nordeste 27 Nordeste 0.8 -- -- 99
2020-03-17 09:00:00 5.6 16 Nordeste 30 Nordeste 0.2 -- -- 98
2020-03-17 08:00:00 5.4 18 Nordeste 31 Nordeste 0 -- -- 98
2020-03-17 07:00:00 5.1 17 Nordeste 35 Nordeste 1 -- -- 98
2020-03-17 06:00:00 5.6 20 Nordeste 35 Este 0 -- -- 94
2020-03-17 05:00:00 5.3 22 Nordeste 37 Nordeste 0 -- -- 95
2020-03-17 04:00:00 5.1 16 Nordeste 35 Nordeste 0 -- -- 95
2020-03-17 03:00:00 4.9 19 Nordeste 35 Nordeste 0.2 -- -- 96
2020-03-17 02:00:00 5.2 21 Nordeste 38 Nordeste 0 -- -- 93
2020-03-17 01:00:00 5.1 18 Nordeste 35 Nordeste 0 -- -- 92
2020-03-17 00:00:00 4.7 22 Nordeste 38 Nordeste 0 -- -- 91
2020-03-16 23:00:00 4.3 22 Nordeste 39 Nordeste 0 -- -- 91
2020-03-16 22:00:00 4.3 21 Nordeste 41 Nordeste 0 -- -- 92
2020-03-16 21:00:00 3.8 19 Nordeste 43 Nordeste 0 -- -- 95
2020-03-16 20:00:00 3.2 18 Nordeste 32 Nordeste 1.4 -- -- 96
2020-03-16 19:00:00 3.1 18 Nordeste 32 Nordeste 1.2 -- -- 97
2020-03-16 18:00:00 3 9 Este 27 Nordeste 1 -- -- 95
2020-03-16 17:00:00 2.9 19 Nordeste 38 Nordeste 0.8 -- -- 95
2020-03-16 16:00:00 2.5 16 Nordeste 33 Nordeste 0.4 -- -- 96
2020-03-16 15:00:00 1.8 12 Nordeste 23 Nordeste 1 -- -- 96
2020-03-16 14:00:00 1.4 13 Nordeste 26 Nordeste 0.6 -- -- 96
2020-03-16 13:00:00 0.9 12 Nordeste 23 Nordeste 1 -- -- 99
2020-03-16 12:00:00 0.2 8 Nordeste 14 Nordeste 3.2 -- -- 100
2020-03-16 11:00:00 0.1 7 Nordeste 13 Nordeste 2 -- -- 100
2020-03-16 10:00:00 0 7 Nordeste 28 Norte 2.2 -- -- 100
2020-03-16 09:00:00 0 14 Norte 23 Norte 2 -- -- 100
2020-03-16 08:00:00 -0.1 9 Norte 24 Norte 1.2 -- -- 100
2020-03-16 07:00:00 0.2 14 Norte 27 Nordeste 1.2 -- -- 99
2020-03-16 06:00:00 1.7 15 Nordeste 28 Nordeste 3.8 -- -- 97
2020-03-16 05:00:00 4.8 2 Sudeste 10 Oeste 1.8 -- -- 99
2020-03-16 04:00:00 5.1 2 Sur 6 Oeste 1.4 -- -- 99
2020-03-16 03:00:00 5.2 4 Sudoeste 17 Sur 1.4 -- -- 98
2020-03-16 02:00:00 5.9 8 Sur 35 Sur 3 -- -- 98
2020-03-16 01:00:00 6.3 9 Sudeste 18 Sudeste 0.2 -- -- 97
2020-03-16 00:00:00 6.1 8 Sudeste 19 Sudeste 0 -- -- 96
2020-03-15 23:00:00 6.1 9 Sudeste 15 Sudeste 0.2 -- -- 98
2020-03-15 22:00:00 6.4 8 Sudeste 26 Sudoeste 5.6 -- -- 97
2020-03-15 21:00:00 6.8 9 Sur 17 Sudeste 1.2 -- -- 97
2020-03-15 20:00:00 7.3 9 Noroeste 73 Oeste 2.8 -- -- 94
2020-03-15 19:00:00 13.7 18 Sudoeste 45 Sudoeste 0 -- -- 55
2020-03-15 18:00:00 15 27 Sur 48 Sudoeste 0 -- -- 42
2020-03-15 17:00:00 17.4 24 Sudoeste 41 Sudoeste 0 -- -- 42
2020-03-15 16:00:00 17.4 24 Sudoeste 44 Sur 0 -- -- 42
2020-03-15 15:00:00 17.4 22 Sudoeste 40 Sur 0 -- -- 49
2020-03-15 14:00:00 16.2 24 Sur 38 Sur 0 -- -- 56
2020-03-15 13:00:00 15.9 18 Sur 38 Sur 0 -- -- 58
2020-03-15 12:00:00 15.2 18 Sur 32 Sur 0 -- -- 61
2020-03-15 11:00:00 14 15 Sur 27 Sur 0 -- -- 65
2020-03-15 10:00:00 11.5 13 Sur 23 Sur 0 -- -- 70
2020-03-15 09:00:00 9.5 5 Sudeste 10 Sudeste 0 -- -- 62
2020-03-15 08:00:00 4.5 5 Este 6 Este 0 -- -- 63
2020-03-15 07:00:00 2.1 3 Este 6 Nordeste 0 -- -- 70
2020-03-15 06:00:00 2.7 5 Este 5 Este 0 -- -- 68
2020-03-15 05:00:00 1.5 4 Nordeste 6 Nordeste 0 -- -- 75
2020-03-15 04:00:00 2.8 5 Nordeste 9 Nordeste 0 -- -- 70
2020-03-15 03:00:00 2.6 5 Nordeste 7 Nordeste 0 -- -- 72
2020-03-15 02:00:00 2.7 4 Nordeste 7 Nordeste 0 -- -- 72
2020-03-15 01:00:00 4.2 4 Sudeste 9 Sudeste 0 -- -- 62
2020-03-15 00:00:00 5.3 7 Sudeste 9 Sudeste 0 -- -- 58
2020-03-14 23:00:00 5.4 3 Este 6 Nordeste 0 -- -- 59
2020-03-14 22:00:00 6 3 Nordeste 11 Este 0 -- -- 59
2020-03-14 21:00:00 7.7 5 Nordeste 15 Este 0 -- -- 53
2020-03-14 20:00:00 9.5 8 Este 15 Este 0 -- -- 49
2020-03-14 19:00:00 14 9 Sudeste 19 Este 0 -- -- 39
2020-03-14 18:00:00 17.7 7 Sudeste 11 Sudeste 0 -- -- 32
2020-03-14 17:00:00 18.1 6 Norte 15 Nordeste 0 -- -- 25
2020-03-14 16:00:00 18.3 6 Norte 22 Noroeste 0 -- -- 28
2020-03-14 15:00:00 17.4 6 Sudeste 19 Sudeste 0 -- -- 40
2020-03-14 14:00:00 15.7 8 Sur 17 Sur 0 -- -- 51
2020-03-14 13:00:00 15.3 8 Sur 15 Este 0 -- -- 57
2020-03-14 12:00:00 15.3 5 Oeste 12 Noroeste 0 -- -- 39
2020-03-14 11:00:00 13.4 3 Norte 9 Norte 0 -- -- 65
2020-03-14 10:00:00 11 3 Noroeste 8 Noroeste 0 -- -- 73
2020-03-14 09:00:00 7.9 5 Noroeste 8 Noroeste 0 -- -- 84
2020-03-14 08:00:00 3.4 6 Noroeste 9 Noroeste 0 -- -- 100
2020-03-14 07:00:00 0.8 4 Noroeste 9 Noroeste 0 -- -- 100
2020-03-14 06:00:00 2.1 4 Noroeste 9 Norte 0 -- -- 100
2020-03-14 05:00:00 2 4 Noroeste 8 Norte 0 -- -- 100
2020-03-14 04:00:00 2.5 0 Calma 8 Norte 0 -- -- 100
2020-03-14 03:00:00 2.8 0 Calma 4 Norte 0 -- -- 99
2020-03-14 02:00:00 2.6 4 Norte 6 Nordeste 0 -- -- 97
2020-03-14 01:00:00 3.3 3 Noroeste 6 Norte 0 -- -- 99
2020-03-14 00:00:00 3.1 4 Norte 8 Norte 0 -- -- 97
2020-03-13 23:00:00 4.1 0 Calma 7 Norte 0 -- -- 94
2020-03-13 22:00:00 5.3 5 Este 16 Este 0 -- -- 90
2020-03-13 21:00:00 6.5 9 Este 18 Este 0 -- -- 86
2020-03-13 20:00:00 8 9 Este 22 Este 0 -- -- 80
2020-03-13 19:00:00 10.2 14 Este 24 Este 0 -- -- 72
2020-03-13 18:00:00 12.3 13 Este 26 Este 0 -- -- 65
2020-03-13 17:00:00 14 13 Nordeste 23 Este 0 -- -- 61
2020-03-13 16:00:00 16.2 9 Este 28 Este 0 -- -- 57
2020-03-13 15:00:00 15.6 13 Este 33 Este 0 -- -- 58
2020-03-13 14:00:00 14.4 13 Este 26 Sudeste 0 -- -- 58
2020-03-13 13:00:00 13.9 13 Nordeste 26 Este 0 -- -- 60
2020-03-13 12:00:00 13 17 Este 27 Nordeste 0 -- -- 64
2020-03-13 11:00:00 11.3 14 Este 24 Este 0 -- -- 69
2020-03-13 10:00:00 9.9 15 Este 23 Este 0 -- -- 74
2020-03-13 09:00:00 7.7 11 Nordeste 26 Nordeste 0 -- -- 84
2020-03-13 08:00:00 6.3 10 Nordeste 19 Este 0 -- -- 91
2020-03-13 07:00:00 6.4 14 Este 23 Este 0 -- -- 91
2020-03-13 06:00:00 6.7 15 Nordeste 24 Nordeste 0 -- -- 91
2020-03-13 05:00:00 6.6 5 Este 15 Este 0 -- -- 94
2020-03-13 04:00:00 7 12 Este 23 Este 0 -- -- 93
2020-03-13 03:00:00 7.1 12 Este 17 Este 0 -- -- 93
2020-03-13 02:00:00 7.4 10 Este 15 Este 0 -- -- 95
2020-03-13 01:00:00 7.4 6 Nordeste 14 Este 0 -- -- 95
2020-03-13 00:00:00 8.2 8 Nordeste 23 Nordeste 0 -- -- 92
2020-03-12 23:00:00 8.9 8 Nordeste 15 Nordeste 0 -- -- 88
2020-03-12 22:00:00 10.3 10 Este 17 Este 0 -- -- 80
2020-03-12 21:00:00 12.6 7 Nordeste 15 Este 0 -- -- 70
2020-03-12 20:00:00 16.7 4 Sudoeste 18 Sur 0 -- -- 41
2020-03-12 19:00:00 18.7 10 Sur 22 Sur 0 -- -- 36
2020-03-12 18:00:00 20.7 11 Sudoeste 32 Sudoeste 0 -- -- 33
2020-03-12 17:00:00 22.9 12 Sudoeste 31 Sudoeste 0 -- -- 29
2020-03-12 16:00:00 22.8 16 Sudoeste 41 Sudoeste 0 -- -- 29
2020-03-12 15:00:00 23.9 21 Sudoeste 42 Sur 0 -- -- 27
2020-03-12 14:00:00 23.4 22 Sur 38 Sudoeste 0 -- -- 30
2020-03-12 13:00:00 22.9 21 Sur 35 Sur 0 -- -- 34
2020-03-12 12:00:00 21.6 12 Sur 24 Sudoeste 0 -- -- 39
2020-03-12 11:00:00 19.5 11 Sudoeste 19 Sur 0 -- -- 46
2020-03-12 10:00:00 17.8 4 Este 6 Este 0 -- -- 52
2020-03-12 09:00:00 14.2 2 Este 5 Norte 0 -- -- 60
2020-03-12 08:00:00 7.2 3 Norte 5 Norte 0 -- -- 83
2020-03-12 07:00:00 7.3 3 Este 5 Nordeste 0 -- -- 84
2020-03-12 06:00:00 6.7 0 Calma 7 Sur 0 -- -- 83
2020-03-12 05:00:00 9.3 6 Sur 8 Sur 0 -- -- 74
2020-03-12 04:00:00 8.8 5 Sudeste 8 Sudeste 0 -- -- 74
2020-03-12 03:00:00 8.9 4 Sur 10 Sur 0 -- -- 73
2020-03-12 02:00:00 9 4 Norte 12 Sudoeste 0 -- -- 73
2020-03-12 01:00:00 12.6 9 Sudoeste 15 Sudoeste 0 -- -- 58
2020-03-12 00:00:00 12 6 Sudoeste 10 Sudoeste 0 -- -- 58
2020-03-11 23:00:00 12.3 8 Oeste 10 Sudoeste 0 -- -- 57
2020-03-11 22:00:00 12.1 9 Sudoeste 11 Sudoeste 0 -- -- 59
2020-03-11 21:00:00 14 5 Oeste 13 Noroeste 0 -- -- 51
2020-03-11 20:00:00 15.1 9 Oeste 13 Oeste 0 -- -- 48
2020-03-11 19:00:00 17.3 9 Oeste 21 Oeste 0 -- -- 42
2020-03-11 18:00:00 21.4 17 Oeste 32 Oeste 0 -- -- 32
2020-03-11 17:00:00 22.4 19 Oeste 34 Oeste 0 -- -- 30
2020-03-11 16:00:00 22.7 20 Oeste 34 Oeste 0 -- -- 30
2020-03-11 15:00:00 22.1 19 Oeste 34 Noroeste 0 -- -- 29
2020-03-11 14:00:00 21 16 Oeste 32 Oeste 0 -- -- 31
2020-03-11 13:00:00 19.1 19 Oeste 32 Oeste 0 -- -- 35
2020-03-11 12:00:00 17.6 20 Oeste 28 Sudoeste 0 -- -- 36
2020-03-11 11:00:00 16.8 18 Oeste 27 Noroeste 0 -- -- 34
2020-03-11 10:00:00 15.9 10 Oeste 17 Noroeste 0 -- -- 38
2020-03-11 09:00:00 12.7 8 Noroeste 13 Noroeste 0 -- -- 58
2020-03-11 08:00:00 8.2 7 Noroeste 13 Noroeste 0 -- -- 74
2020-03-11 07:00:00 7.7 7 Oeste 23 Oeste 0 -- -- 72
2020-03-11 06:00:00 8.7 15 Oeste 22 Oeste 0 -- -- 71
2020-03-11 05:00:00 7.8 12 Oeste 20 Oeste 0 -- -- 81
2020-03-11 04:00:00 9 14 Oeste 21 Oeste 0 -- -- 80
2020-03-11 03:00:00 8.2 12 Oeste 15 Oeste 0 -- -- 83
2020-03-11 02:00:00 8.6 7 Oeste 17 Oeste 0 -- -- 80
2020-03-11 01:00:00 7.9 11 Oeste 15 Oeste 0 -- -- 81
2020-03-11 00:00:00 8.5 6 Oeste 14 Noroeste 0 -- -- 77
2020-03-10 23:00:00 10.7 9 Oeste 21 Oeste 0 -- -- 70
2020-03-10 22:00:00 11.1 13 Oeste 21 Oeste 0 -- -- 68
2020-03-10 21:00:00 10.7 9 Noroeste 12 Noroeste 0 -- -- 68
2020-03-10 20:00:00 12.6 10 Noroeste 22 Oeste 0 -- -- 62
2020-03-10 19:00:00 14.7 14 Oeste 29 Oeste 0 -- -- 55
2020-03-10 18:00:00 15.9 18 Oeste 32 Oeste 0 -- -- 50
2020-03-10 17:00:00 16.9 19 Oeste 33 Oeste 0 -- -- 45
2020-03-10 16:00:00 17.3 27 Oeste 39 Oeste 0 -- -- 44
2020-03-10 15:00:00 18.3 21 Oeste 36 Oeste 0 -- -- 42
2020-03-10 14:00:00 17.1 23 Oeste 35 Oeste 0 -- -- 45
2020-03-10 13:00:00 16.1 13 Oeste 33 Oeste 0 -- -- 46
2020-03-10 12:00:00 13.7 22 Oeste 38 Noroeste 0 -- -- 50
2020-03-10 11:00:00 11.2 21 Oeste 41 Oeste 0 -- -- 55
2020-03-10 10:00:00 9.1 24 Oeste 40 Oeste 0 -- -- 62
2020-03-10 09:00:00 6.9 16 Oeste 28 Noroeste 0 -- -- 70
2020-03-10 08:00:00 5.3 15 Oeste 31 Oeste 0 -- -- 74
2020-03-10 07:00:00 5.1 19 Oeste 33 Oeste 0 -- -- 72
2020-03-10 06:00:00 5.3 17 Oeste 31 Oeste 0 -- -- 67
2020-03-10 05:00:00 4.9 15 Oeste 27 Oeste 0 -- -- 65
2020-03-10 04:00:00 4.7 14 Oeste 22 Oeste 0 -- -- 64
2020-03-10 03:00:00 3.3 4 Oeste 13 Noroeste 0 -- -- 67
2020-03-10 02:00:00 3.4 6 Noroeste 16 Noroeste 0 -- -- 72
2020-03-10 01:00:00 4.3 10 Noroeste 18 Oeste 0 -- -- 70
2020-03-10 00:00:00 4.6 14 Oeste 20 Oeste 0 -- -- 71
2020-03-09 23:00:00 4 12 Oeste 16 Oeste 0 -- -- 74
2020-03-09 22:00:00 6.2 12 Noroeste 24 Noroeste 0 -- -- 60
2020-03-09 21:00:00 6.7 12 Noroeste 20 Noroeste 0 -- -- 57
2020-03-09 20:00:00 6.4 10 Noroeste 23 Noroeste 0 -- -- 50
2020-03-09 19:00:00 8.7 16 Noroeste 32 Oeste 0 -- -- 39
2020-03-09 18:00:00 10.5 16 Noroeste 35 Noroeste 0 -- -- 40
2020-03-09 17:00:00 11 20 Noroeste 31 Norte 0 -- -- 39
2020-03-09 16:00:00 12.6 17 Noroeste 33 Oeste 0 -- -- 35
2020-03-09 15:00:00 12.6 10 Noroeste 34 Oeste 0 -- -- 39
2020-03-09 14:00:00 12.4 17 Noroeste 34 Noroeste 0 -- -- 37
2020-03-09 13:00:00 11.4 17 Noroeste 32 Oeste 0 -- -- 43
2020-03-09 12:00:00 8.6 18 Noroeste 32 Oeste 0 -- -- 59
2020-03-09 11:00:00 8.3 15 Oeste 30 Oeste 0 -- -- 66
2020-03-09 10:00:00 6.3 15 Noroeste 24 Oeste 0 -- -- 79
2020-03-09 09:00:00 3.5 10 Noroeste 25 Oeste 0 -- -- 92
2020-03-09 08:00:00 1.9 12 Noroeste 24 Noroeste 0 -- -- 96
2020-03-09 07:00:00 2.4 16 Noroeste 36 Oeste 0 -- -- 97
2020-03-09 06:00:00 2.4 21 Oeste 32 Oeste 0 -- -- 95
2020-03-09 05:00:00 3 22 Oeste 33 Oeste 0 -- -- 95
2020-03-09 04:00:00 3.7 21 Oeste 32 Oeste 0 -- -- 93
2020-03-09 03:00:00 4.6 17 Oeste 30 Oeste 0 -- -- 92
2020-03-09 02:00:00 5.1 21 Oeste 34 Oeste 0 -- -- 92
2020-03-09 01:00:00 6.1 19 Noroeste 32 Oeste 0 -- -- 90
2020-03-09 00:00:00 6.2 18 Oeste 32 Oeste 0 -- -- 88
2020-03-08 23:00:00 6.8 20 Oeste 32 Oeste 0 -- -- 82
2020-03-08 22:00:00 6.6 15 Oeste 24 Oeste 0 -- -- 77
2020-03-08 21:00:00 6.4 15 Oeste 33 Oeste 0 -- -- 72
2020-03-08 20:00:00 7.5 17 Oeste 32 Oeste 0 -- -- 70
2020-03-08 19:00:00 8.9 21 Oeste 34 Oeste 0 -- -- 68
2020-03-08 18:00:00 9.8 19 Oeste 41 Oeste 0 -- -- 63
2020-03-08 17:00:00 11.4 23 Oeste 41 Oeste 0 -- -- 57
2020-03-08 16:00:00 10.8 23 Oeste 40 Oeste 0 -- -- 56
2020-03-08 15:00:00 10.9 28 Oeste 42 Oeste 0 -- -- 56
2020-03-08 14:00:00 12 22 Oeste 39 Oeste 0 -- -- 54
2020-03-08 13:00:00 9.2 24 Oeste 39 Oeste 0 -- -- 65
2020-03-08 12:00:00 8.6 27 Oeste 43 Oeste 0 -- -- 68
2020-03-08 11:00:00 8.6 21 Oeste 40 Oeste 0 -- -- 70
2020-03-08 10:00:00 7 24 Oeste 38 Oeste 0 -- -- 73
2020-03-08 09:00:00 6.2 12 Oeste 31 Oeste 0 -- -- 76
2020-03-08 08:00:00 3.3 14 Noroeste 26 Oeste 0 -- -- 86
2020-03-08 07:00:00 2.7 16 Oeste 28 Oeste 0 -- -- 88
2020-03-08 06:00:00 2.4 17 Oeste 27 Oeste 0 -- -- 90
2020-03-08 05:00:00 2.4 15 Oeste 24 Oeste 0 -- -- 91
2020-03-08 04:00:00 2.8 16 Oeste 27 Oeste 0 -- -- 89
2020-03-08 03:00:00 3.1 10 Oeste 22 Oeste 0 -- -- 86
2020-03-08 02:00:00 2.3 11 Oeste 19 Oeste 0 -- -- 89
2020-03-08 01:00:00 3.4 9 Oeste 21 Oeste 0 -- -- 84
2020-03-08 00:00:00 2.6 9 Oeste 16 Oeste 0 -- -- 87